createdAt,value
2023-05-24T00:00:27.154Z,100092.06
2023-05-24T00:05:52.798Z,100100.39
2023-05-24T00:10:56.590Z,100107.64
2023-05-24T00:16:00.788Z,100114.14
2023-05-24T00:21:04.582Z,100122.73
2023-05-24T00:26:08.798Z,100119.89
2023-05-24T00:31:13.869Z,100121.65
2023-05-24T00:36:17.809Z,100123.21
2023-05-24T00:41:21.619Z,100121.65
2023-05-24T00:46:33.533Z,100129.77
2023-05-24T00:51:38.813Z,100131.79
2023-05-24T00:56:45.511Z,100138.17
2023-05-24T01:01:49.219Z,100142.88
2023-05-24T01:07:02.077Z,100145.97
2023-05-24T01:12:29.304Z,100149.34
2023-05-24T01:18:01.981Z,100162.84
2023-05-24T01:23:27.900Z,100163.98
2023-05-24T01:28:34.713Z,100170.69
2023-05-24T01:33:43.067Z,100173.48
2023-05-24T01:38:50.873Z,100181.77
2023-05-24T01:44:26.756Z,100187.67
2023-05-24T01:49:34.934Z,100187.10
2023-05-24T01:54:50.812Z,100195.27
2023-05-24T01:59:54.810Z,100202.56
2023-05-24T02:04:59.661Z,100212.48
2023-05-24T02:10:04.542Z,100212.96
2023-05-24T02:15:08.755Z,100230.67
2023-05-24T02:20:13.922Z,100232.40
2023-05-24T02:25:17.863Z,100243.43
2023-05-24T02:30:21.676Z,100252.06
2023-05-24T02:35:27.349Z,100251.41
2023-05-24T02:40:31.279Z,100254.47
2023-05-24T02:45:34.984Z,100261.42
2023-05-24T02:50:38.651Z,100261.75
2023-05-24T02:55:44.359Z,100266.11
2023-05-24T03:00:50.415Z,100270.23
2023-05-24T03:05:55.616Z,100283.14
2023-05-24T03:10:59.217Z,100286.26
2023-05-24T03:16:02.793Z,100304.06
2023-05-24T03:21:07.850Z,100314.13
2023-05-24T03:26:13.509Z,100313.53
2023-05-24T03:31:17.298Z,100320.05
2023-05-24T03:36:22.585Z,100319.98
2023-05-24T03:41:27.842Z,100321.33
2023-05-24T03:46:35.383Z,100314.02
2023-05-24T03:51:39.236Z,100315.11
2023-05-24T03:56:43.002Z,100309.48
2023-05-24T04:01:46.826Z,100312.94
2023-05-24T04:06:51.758Z,100315.85
2023-05-24T04:11:55.705Z,100322.35
2023-05-24T04:17:00.236Z,100332.91
2023-05-24T04:22:04.258Z,100343.30
2023-05-24T04:27:08.349Z,100344.44
2023-05-24T04:32:15.204Z,100356.02
2023-05-24T04:37:19.306Z,100362.13
2023-05-24T04:42:25.418Z,100369.30
2023-05-24T04:47:29.539Z,100368.13
2023-05-24T04:52:36.854Z,100365.98
2023-05-24T04:57:40.434Z,100370.55
2023-05-24T05:02:44.147Z,100374.72
2023-05-24T05:07:48.936Z,100369.91
2023-05-24T05:12:52.732Z,100376.02
2023-05-24T05:17:56.575Z,100387.67
2023-05-24T05:23:00.419Z,100391.23
2023-05-24T05:28:04.020Z,100394.66
2023-05-24T05:33:07.724Z,100408.08
2023-05-24T05:38:11.578Z,100416.27
2023-05-24T05:43:15.259Z,100424.91
2023-05-24T05:48:19.101Z,100430.40
2023-05-24T05:53:22.707Z,100439.78
2023-05-24T05:58:27.258Z,100439.95
2023-05-24T06:03:31.285Z,100436.98
2023-05-24T06:08:35.495Z,100444.88
2023-05-24T06:13:39.177Z,100450.73
2023-05-24T06:18:50.178Z,100455.89
2023-05-24T06:24:03.165Z,100459.06
2023-05-24T06:29:08.024Z,100464.45
2023-05-24T06:34:11.665Z,100467.66
2023-05-24T06:39:16.601Z,100474.17
2023-05-24T06:44:25.299Z,100487.15
2023-05-24T06:49:29.306Z,100496.79
2023-05-24T06:54:32.997Z,100503.83
2023-05-24T06:59:36.651Z,100515.59
2023-05-24T07:04:42.219Z,100517.52
2023-05-24T07:09:46.685Z,100519.85
2023-05-24T07:14:50.488Z,100524.77
2023-05-24T07:19:54.274Z,100523.93
2023-05-24T07:24:58.238Z,100528.16
2023-05-24T07:30:02.881Z,100520.66
2023-05-24T07:35:08.169Z,100530.73
2023-05-24T07:40:12.520Z,100538.66
2023-05-24T07:45:16.430Z,100544.86
2023-05-24T07:50:20.163Z,100551.42
2023-05-24T07:55:23.909Z,100555.28
2023-05-24T08:00:28.134Z,100552.52
2023-05-24T08:05:32.565Z,100556.99
2023-05-24T08:10:36.211Z,100556.84
2023-05-24T08:15:39.890Z,100562.68
2023-05-24T08:20:43.740Z,100566.58
2023-05-24T08:25:47.884Z,100564.72
2023-05-24T08:30:52.298Z,100568.40
2023-05-24T08:35:56.775Z,100575.00
2023-05-24T08:41:00.836Z,100573.58
2023-05-24T08:46:06.151Z,100577.95
2023-05-24T08:51:10.173Z,100577.46
2023-05-24T08:56:20.870Z,100589.31
2023-05-24T09:01:26.634Z,100590.13
2023-05-24T09:06:32.992Z,100590.10
2023-05-24T09:11:38.815Z,100589.09
2023-05-24T09:16:45.565Z,100595.98
2023-05-24T09:21:58.113Z,100605.09
2023-05-24T09:27:07.497Z,100606.90
2023-05-24T09:32:11.915Z,100613.19
2023-05-24T09:37:18.161Z,100618.98
2023-05-24T09:42:25.960Z,100614.85
2023-05-24T09:47:35.286Z,100614.52
2023-05-24T09:52:39.951Z,100606.31
2023-05-24T09:57:50.799Z,100603.28
2023-05-24T10:03:05.067Z,100608.94
2023-05-24T10:08:10.569Z,100616.09
2023-05-24T10:13:18.167Z,100625.73
2023-05-24T10:18:22.209Z,100624.59
2023-05-24T10:23:30.821Z,100631.83
2023-05-24T10:28:43.223Z,100634.15
2023-05-24T10:33:48.906Z,100632.38
2023-05-24T10:38:53.534Z,100630.44
2023-05-24T10:44:09.210Z,100638.38
2023-05-24T10:49:15.473Z,100637.47
2023-05-24T10:54:20.427Z,100643.48
2023-05-24T10:59:47.389Z,100641.48
2023-05-24T11:04:51.697Z,100642.96
2023-05-24T11:10:00.206Z,100639.59
2023-05-24T11:15:04.497Z,100638.20
2023-05-24T11:20:09.653Z,100645.15
2023-05-24T11:25:13.863Z,100642.46
2023-05-24T11:30:18.881Z,100649.14
2023-05-24T11:35:26.170Z,100646.79
2023-05-24T11:40:30.594Z,100652.08
2023-05-24T11:45:34.730Z,100650.66
2023-05-24T11:50:48.805Z,100655.06
2023-05-24T11:55:54.821Z,100658.67
2023-05-24T12:00:59.016Z,100656.18
2023-05-24T12:06:03.206Z,100655.33
2023-05-24T12:11:07.036Z,100657.09
2023-05-24T12:16:12.390Z,100654.29
2023-05-24T12:21:17.260Z,100648.34
2023-05-24T12:26:22.651Z,100649.00
2023-05-24T12:31:27.219Z,100648.26
2023-05-24T12:36:30.912Z,100646.17
2023-05-24T12:41:35.160Z,100646.10
2023-05-24T12:46:38.973Z,100654.05
2023-05-24T12:51:43.876Z,100652.58
2023-05-24T12:56:47.783Z,100653.21
2023-05-24T13:01:53.005Z,100661.75
2023-05-24T13:06:57.788Z,100656.65
2023-05-24T13:12:01.755Z,100657.40
2023-05-24T13:17:06.157Z,100658.80
2023-05-24T13:22:10.351Z,100652.54
2023-05-24T13:27:14.022Z,100651.58
2023-05-24T13:32:17.675Z,100651.34
2023-05-24T13:37:21.561Z,100653.10
2023-05-24T13:42:25.609Z,100656.52
2023-05-24T13:47:39.274Z,100658.06
2023-05-24T13:52:44.095Z,100661.99
2023-05-24T13:57:52.019Z,100660.77
2023-05-24T14:02:56.348Z,100661.98
2023-05-24T14:08:06.928Z,100666.14
2023-05-24T14:13:36.662Z,100663.83
2023-05-24T14:18:38.356Z,100658.19
2023-05-24T14:23:42.374Z,100652.02
2023-05-24T14:28:46.579Z,100658.72
2023-05-24T14:33:50.246Z,100667.63
2023-05-24T14:38:55.745Z,100659.27
2023-05-24T14:44:00.244Z,100661.92
2023-05-24T14:49:05.952Z,100659.89
2023-05-24T14:54:12.699Z,100662.45
2023-05-24T14:59:17.756Z,100658.60
2023-05-24T15:04:22.090Z,100667.76
2023-05-24T15:09:27.824Z,100673.56
2023-05-24T15:14:32.067Z,100670.66
2023-05-24T15:19:36.431Z,100667.39
2023-05-24T15:24:40.677Z,100669.52
2023-05-24T15:29:44.333Z,100666.59
2023-05-24T15:34:48.000Z,100666.84
2023-05-24T15:39:53.237Z,100661.13
2023-05-24T15:44:59.875Z,100655.35
2023-05-24T15:50:03.567Z,100648.16
2023-05-24T15:55:08.922Z,100648.67
2023-05-24T16:00:13.571Z,100647.98
2023-05-24T16:05:20.981Z,100644.75
2023-05-24T16:10:27.526Z,100648.23
2023-05-24T16:15:35.199Z,100652.58
2023-05-24T16:20:39.664Z,100653.23
2023-05-24T16:25:49.734Z,100662.52
2023-05-24T16:30:56.359Z,100667.03
2023-05-24T16:36:03.466Z,100667.48
2023-05-24T16:41:07.350Z,100671.28
2023-05-24T16:46:11.265Z,100676.66
2023-05-24T16:51:16.883Z,100679.91
2023-05-24T16:56:20.720Z,100677.09
2023-05-24T17:01:26.081Z,100682.45
2023-05-24T17:06:29.771Z,100698.15
2023-05-24T17:11:33.356Z,100698.14
2023-05-24T17:16:37.206Z,100698.17
2023-05-24T17:21:41.231Z,100701.09
2023-05-24T17:26:45.725Z,100706.06
2023-05-24T17:31:49.609Z,100711.81
2023-05-24T17:36:53.287Z,100715.49
2023-05-24T17:41:56.922Z,100719.36
2023-05-24T17:47:02.057Z,100726.64
2023-05-24T17:52:07.082Z,100727.23
2023-05-24T17:57:11.054Z,100735.85
2023-05-24T18:02:14.688Z,100732.27
2023-05-24T18:07:18.867Z,100740.70
2023-05-24T18:12:28.000Z,100745.16
2023-05-24T18:17:31.982Z,100754.28
2023-05-24T18:22:35.908Z,100760.47
2023-05-24T18:27:39.678Z,100765.55
2023-05-24T18:32:55.945Z,100771.33
2023-05-24T18:38:06.783Z,100774.27
2023-05-24T18:43:10.524Z,100780.92
2023-05-24T18:48:14.285Z,100785.20
2023-05-24T18:53:18.237Z,100797.08
2023-05-24T18:58:22.436Z,100803.95
2023-05-24T19:03:26.244Z,100808.73
2023-05-24T19:08:32.371Z,100808.04
2023-05-24T19:13:36.768Z,100815.02
2023-05-24T19:18:43.523Z,100817.47
2023-05-24T19:23:49.277Z,100810.17
2023-05-24T19:28:54.444Z,100811.65
2023-05-24T19:34:00.414Z,100814.74
2023-05-24T19:39:05.133Z,100810.34
2023-05-24T19:44:08.966Z,100810.91
2023-05-24T19:49:12.734Z,100812.58
2023-05-24T19:54:17.110Z,100816.30
2023-05-24T19:59:21.068Z,100815.84
2023-05-24T20:04:24.771Z,100812.17
2023-05-24T20:09:28.555Z,100811.36
2023-05-24T20:14:32.526Z,100813.99
2023-05-24T20:19:36.130Z,100821.52
2023-05-24T20:24:39.901Z,100820.83
2023-05-24T20:29:43.853Z,100829.72
2023-05-24T20:34:47.496Z,100838.42
2023-05-24T20:39:51.415Z,100838.70
2023-05-24T20:44:55.142Z,100838.55
2023-05-24T20:49:58.906Z,100843.53
2023-05-24T20:55:02.742Z,100852.84
2023-05-24T21:00:07.098Z,100858.88
2023-05-24T21:05:10.858Z,100864.67
2023-05-24T21:10:17.908Z,100861.83
2023-05-24T21:15:21.667Z,100867.54
2023-05-24T21:20:25.490Z,100871.84
2023-05-24T21:25:29.313Z,100874.41
2023-05-24T21:30:33.035Z,100876.55
2023-05-24T21:35:37.580Z,100879.02
2023-05-24T21:40:41.283Z,100885.89
2023-05-24T21:45:45.235Z,100887.13
2023-05-24T21:50:49.373Z,100890.73
2023-05-24T21:55:53.084Z,100891.63
2023-05-24T22:00:56.921Z,100893.23
2023-05-24T22:06:01.327Z,100897.39
2023-05-24T22:11:05.008Z,100901.65
2023-05-24T22:16:09.683Z,100903.56
2023-05-24T22:21:14.782Z,100911.98
2023-05-24T22:26:20.575Z,100911.69
2023-05-24T22:31:26.147Z,100911.46
2023-05-24T22:36:34.147Z,100907.06
2023-05-24T22:41:37.769Z,100911.99
2023-05-24T22:46:41.626Z,100910.06
2023-05-24T22:51:53.033Z,100903.06
2023-05-24T22:56:57.062Z,100908.85
2023-05-24T23:02:00.715Z,100904.61
2023-05-24T23:07:05.507Z,100905.66
2023-05-24T23:12:09.799Z,100909.88
2023-05-24T23:17:13.784Z,100910.40
2023-05-24T23:22:18.835Z,100912.88
2023-05-24T23:27:31.372Z,100910.70
2023-05-24T23:32:35.868Z,100909.61
2023-05-24T23:37:40.894Z,100913.67
2023-05-24T23:42:49.402Z,100916.72
2023-05-24T23:47:53.382Z,100917.84
2023-05-24T23:52:57.212Z,100920.63
2023-05-24T23:58:00.985Z,100919.84
